sensor_id;sensor_type;location;lat;lon;timestamp;P1;durP1;ratioP1;P2;durP2;ratioP2
49041;SDS011;34859;51.608;11.462;2023-09-19T00:02:05;2.00;;;1.48;;
49041;SDS011;34859;51.608;11.462;2023-09-19T00:04:50;3.60;;;1.50;;
49041;SDS011;34859;51.608;11.462;2023-09-19T00:07:35;5.18;;;1.67;;
49041;SDS011;34859;51.608;11.462;2023-09-19T00:10:21;2.70;;;1.30;;
49041;SDS011;34859;51.608;11.462;2023-09-19T00:13:05;1.35;;;1.10;;
49041;SDS011;34859;51.608;11.462;2023-09-19T00:15:51;1.38;;;1.20;;
49041;SDS011;34859;51.608;11.462;2023-09-19T00:18:35;1.55;;;1.40;;
49041;SDS011;34859;51.608;11.462;2023-09-19T00:21:18;1.75;;;1.15;;
49041;SDS011;34859;51.608;11.462;2023-09-19T00:24:06;2.90;;;1.55;;
49041;SDS011;34859;51.608;11.462;2023-09-19T00:26:52;2.10;;;1.30;;
49041;SDS011;34859;51.608;11.462;2023-09-19T00:29:38;2.47;;;0.95;;
49041;SDS011;34859;51.608;11.462;2023-09-19T00:35:07;2.70;;;1.25;;
49041;SDS011;34859;51.608;11.462;2023-09-19T00:37:51;1.40;;;1.30;;
49041;SDS011;34859;51.608;11.462;2023-09-19T00:40:36;1.90;;;1.50;;
49041;SDS011;34859;51.608;11.462;2023-09-19T00:43:20;2.80;;;1.20;;
49041;SDS011;34859;51.608;11.462;2023-09-19T00:46:07;1.88;;;1.75;;
49041;SDS011;34859;51.608;11.462;2023-09-19T00:48:52;1.88;;;1.08;;
49041;SDS011;34859;51.608;11.462;2023-09-19T00:51:36;0.87;;;0.87;;
49041;SDS011;34859;51.608;11.462;2023-09-19T00:54:20;2.92;;;1.38;;
49041;SDS011;34859;51.608;11.462;2023-09-19T00:57:05;1.35;;;1.10;;
49041;SDS011;34859;51.608;11.462;2023-09-19T00:59:49;8.30;;;1.67;;
49041;SDS011;34859;51.608;11.462;2023-09-19T01:02:37;2.08;;;1.65;;
49041;SDS011;34859;51.608;11.462;2023-09-19T01:05:21;1.85;;;1.42;;
49041;SDS011;34859;51.608;11.462;2023-09-19T01:08:07;3.00;;;1.40;;
49041;SDS011;34859;51.608;11.462;2023-09-19T01:10:52;2.00;;;1.37;;
49041;SDS011;34859;51.608;11.462;2023-09-19T01:14:02;1.50;;;1.05;;
49041;SDS011;34859;51.608;11.462;2023-09-19T01:16:53;3.28;;;1.30;;
49041;SDS011;34859;51.608;11.462;2023-09-19T01:23:00;1.50;;;1.40;;
49041;SDS011;34859;51.608;11.462;2023-09-19T01:32:16;1.05;;;1.00;;
49041;SDS011;34859;51.608;11.462;2023-09-19T01:35:05;2.63;;;1.30;;
49041;SDS011;34859;51.608;11.462;2023-09-19T01:37:46;1.13;;;1.00;;
49041;SDS011;34859;51.608;11.462;2023-09-19T01:40:27;1.70;;;0.98;;
49041;SDS011;34859;51.608;11.462;2023-09-19T01:43:20;0.97;;;0.87;;
49041;SDS011;34859;51.608;11.462;2023-09-19T01:52:02;1.40;;;1.30;;
49041;SDS011;34859;51.608;11.462;2023-09-19T01:54:53;4.78;;;1.30;;
49041;SDS011;34859;51.608;11.462;2023-09-19T01:57:56;3.42;;;1.35;;
49041;SDS011;34859;51.608;11.462;2023-09-19T02:00:48;3.20;;;1.30;;
49041;SDS011;34859;51.608;11.462;2023-09-19T02:03:35;1.20;;;1.00;;
49041;SDS011;34859;51.608;11.462;2023-09-19T02:09:04;1.58;;;1.20;;
49041;SDS011;34859;51.608;11.462;2023-09-19T02:11:49;2.35;;;0.95;;
49041;SDS011;34859;51.608;11.462;2023-09-19T02:14:33;1.20;;;1.10;;
49041;SDS011;34859;51.608;11.462;2023-09-19T02:17:19;1.00;;;0.90;;
49041;SDS011;34859;51.608;11.462;2023-09-19T02:20:03;1.38;;;1.27;;
49041;SDS011;34859;51.608;11.462;2023-09-19T02:22:55;2.63;;;1.70;;
49041;SDS011;34859;51.608;11.462;2023-09-19T02:25:39;1.27;;;1.17;;
49041;SDS011;34859;51.608;11.462;2023-09-19T02:28:24;1.70;;;1.40;;
49041;SDS011;34859;51.608;11.462;2023-09-19T02:31:13;1.27;;;1.17;;
49041;SDS011;34859;51.608;11.462;2023-09-19T02:34:00;1.40;;;1.23;;
49041;SDS011;34859;51.608;11.462;2023-09-19T02:36:45;5.18;;;1.38;;
49041;SDS011;34859;51.608;11.462;2023-09-19T02:42:15;2.28;;;2.08;;
49041;SDS011;34859;51.608;11.462;2023-09-19T02:45:00;4.88;;;1.30;;
49041;SDS011;34859;51.608;11.462;2023-09-19T02:47:47;4.63;;;1.52;;
49041;SDS011;34859;51.608;11.462;2023-09-19T02:50:30;2.92;;;1.70;;
49041;SDS011;34859;51.608;11.462;2023-09-19T02:55:59;3.42;;;1.48;;
49041;SDS011;34859;51.608;11.462;2023-09-19T02:58:44;3.17;;;1.48;;
49041;SDS011;34859;51.608;11.462;2023-09-19T03:04:14;3.13;;;1.40;;
49041;SDS011;34859;51.608;11.462;2023-09-19T03:07:03;3.97;;;1.42;;
49041;SDS011;34859;51.608;11.462;2023-09-19T03:09:42;1.75;;;1.23;;
49041;SDS011;34859;51.608;11.462;2023-09-19T03:12:27;3.25;;;1.92;;
49041;SDS011;34859;51.608;11.462;2023-09-19T03:15:12;1.67;;;1.42;;
49041;SDS011;34859;51.608;11.462;2023-09-19T03:17:58;1.58;;;1.48;;
49041;SDS011;34859;51.608;11.462;2023-09-19T03:20:51;3.10;;;1.50;;
49041;SDS011;34859;51.608;11.462;2023-09-19T03:23:40;1.52;;;1.30;;
49041;SDS011;34859;51.608;11.462;2023-09-19T03:29:10;3.00;;;1.10;;
49041;SDS011;34859;51.608;11.462;2023-09-19T03:34:39;1.70;;;1.25;;
49041;SDS011;34859;51.608;11.462;2023-09-19T03:37:26;1.00;;;0.90;;
49041;SDS011;34859;51.608;11.462;2023-09-19T03:42:56;1.42;;;1.17;;
49041;SDS011;34859;51.608;11.462;2023-09-19T03:45:45;3.42;;;1.23;;
49041;SDS011;34859;51.608;11.462;2023-09-19T03:51:15;3.80;;;1.08;;
49041;SDS011;34859;51.608;11.462;2023-09-19T03:56:45;3.75;;;1.40;;
49041;SDS011;34859;51.608;11.462;2023-09-19T04:02:14;1.25;;;1.00;;
49041;SDS011;34859;51.608;11.462;2023-09-19T04:05:05;2.92;;;1.13;;
49041;SDS011;34859;51.608;11.462;2023-09-19T04:07:44;1.73;;;1.10;;
49041;SDS011;34859;51.608;11.462;2023-09-19T04:10:29;1.60;;;1.38;;
49041;SDS011;34859;51.608;11.462;2023-09-19T04:13:14;2.83;;;1.10;;
49041;SDS011;34859;51.608;11.462;2023-09-19T04:15:53;4.65;;;1.30;;
49041;SDS011;34859;51.608;11.462;2023-09-19T04:21:23;6.10;;;1.55;;
49041;SDS011;34859;51.608;11.462;2023-09-19T04:24:08;2.45;;;1.20;;
49041;SDS011;34859;51.608;11.462;2023-09-19T04:26:53;2.83;;;0.80;;
49041;SDS011;34859;51.608;11.462;2023-09-19T04:29:38;2.95;;;1.48;;
49041;SDS011;34859;51.608;11.462;2023-09-19T04:32:23;2.90;;;1.05;;
49041;SDS011;34859;51.608;11.462;2023-09-19T04:37:53;1.38;;;1.23;;
49041;SDS011;34859;51.608;11.462;2023-09-19T04:40:38;1.92;;;1.35;;
49041;SDS011;34859;51.608;11.462;2023-09-19T04:46:08;3.23;;;0.93;;
49041;SDS011;34859;51.608;11.462;2023-09-19T04:48:53;1.70;;;1.40;;
49041;SDS011;34859;51.608;11.462;2023-09-19T04:54:23;1.35;;;0.93;;
49041;SDS011;34859;51.608;11.462;2023-09-19T04:59:52;4.45;;;1.20;;
49041;SDS011;34859;51.608;11.462;2023-09-19T05:05:20;1.52;;;1.02;;
49041;SDS011;34859;51.608;11.462;2023-09-19T05:08:06;3.40;;;1.55;;
49041;SDS011;34859;51.608;11.462;2023-09-19T05:10:52;1.90;;;1.20;;
49041;SDS011;34859;51.608;11.462;2023-09-19T05:13:39;2.42;;;1.27;;
49041;SDS011;34859;51.608;11.462;2023-09-19T05:16:24;1.75;;;1.30;;
49041;SDS011;34859;51.608;11.462;2023-09-19T05:21:55;2.90;;;1.30;;
49041;SDS011;34859;51.608;11.462;2023-09-19T05:24:40;1.92;;;1.33;;
49041;SDS011;34859;51.608;11.462;2023-09-19T05:30:10;1.38;;;1.20;;
49041;SDS011;34859;51.608;11.462;2023-09-19T05:32:58;3.35;;;1.20;;
49041;SDS011;34859;51.608;11.462;2023-09-19T05:35:42;1.33;;;1.23;;
49041;SDS011;34859;51.608;11.462;2023-09-19T05:38:27;2.30;;;1.38;;
49041;SDS011;34859;51.608;11.462;2023-09-19T05:41:12;5.43;;;1.40;;
49041;SDS011;34859;51.608;11.462;2023-09-19T05:43:54;3.80;;;1.15;;
49041;SDS011;34859;51.608;11.462;2023-09-19T05:49:26;2.03;;;1.30;;
49041;SDS011;34859;51.608;11.462;2023-09-19T05:52:10;3.22;;;1.33;;
49041;SDS011;34859;51.608;11.462;2023-09-19T05:57:41;3.08;;;1.23;;
49041;SDS011;34859;51.608;11.462;2023-09-19T06:00:29;5.28;;;1.45;;
49041;SDS011;34859;51.608;11.462;2023-09-19T06:03:15;3.53;;;1.33;;
49041;SDS011;34859;51.608;11.462;2023-09-19T06:06:01;2.45;;;1.40;;
49041;SDS011;34859;51.608;11.462;2023-09-19T06:08:43;3.47;;;1.50;;
49041;SDS011;34859;51.608;11.462;2023-09-19T06:11:28;2.97;;;1.20;;
49041;SDS011;34859;51.608;11.462;2023-09-19T06:14:15;2.97;;;1.17;;
49041;SDS011;34859;51.608;11.462;2023-09-19T06:17:01;3.28;;;2.22;;
49041;SDS011;34859;51.608;11.462;2023-09-19T06:19:41;2.38;;;1.60;;
49041;SDS011;34859;51.608;11.462;2023-09-19T06:22:33;2.50;;;1.42;;
49041;SDS011;34859;51.608;11.462;2023-09-19T06:25:18;3.03;;;1.20;;
49041;SDS011;34859;51.608;11.462;2023-09-19T06:28:03;4.03;;;1.45;;
49041;SDS011;34859;51.608;11.462;2023-09-19T06:30:49;4.95;;;1.05;;
49041;SDS011;34859;51.608;11.462;2023-09-19T06:33:37;2.58;;;1.15;;
49041;SDS011;34859;51.608;11.462;2023-09-19T06:36:23;3.33;;;1.88;;
49041;SDS011;34859;51.608;11.462;2023-09-19T06:41:54;2.40;;;1.23;;
49041;SDS011;34859;51.608;11.462;2023-09-19T06:44:39;2.63;;;1.50;;
49041;SDS011;34859;51.608;11.462;2023-09-19T06:47:24;3.03;;;1.25;;
49041;SDS011;34859;51.608;11.462;2023-09-19T06:50:10;5.90;;;1.80;;
49041;SDS011;34859;51.608;11.462;2023-09-19T06:52:59;1.60;;;1.40;;
49041;SDS011;34859;51.608;11.462;2023-09-19T06:55:41;6.82;;;1.77;;
49041;SDS011;34859;51.608;11.462;2023-09-19T06:58:28;3.47;;;1.33;;
49041;SDS011;34859;51.608;11.462;2023-09-19T07:03:59;3.63;;;1.60;;
49041;SDS011;34859;51.608;11.462;2023-09-19T07:06:49;2.85;;;1.65;;
49041;SDS011;34859;51.608;11.462;2023-09-19T07:09:34;4.53;;;1.40;;
49041;SDS011;34859;51.608;11.462;2023-09-19T07:15:04;7.13;;;1.50;;
49041;SDS011;34859;51.608;11.462;2023-09-19T07:17:47;2.30;;;1.40;;
49041;SDS011;34859;51.608;11.462;2023-09-19T07:20:33;9.48;;;1.75;;
49041;SDS011;34859;51.608;11.462;2023-09-19T07:23:19;7.60;;;1.80;;
49041;SDS011;34859;51.608;11.462;2023-09-19T07:26:05;5.85;;;1.90;;
49041;SDS011;34859;51.608;11.462;2023-09-19T07:28:51;3.33;;;1.60;;
49041;SDS011;34859;51.608;11.462;2023-09-19T07:31:36;5.53;;;1.85;;
49041;SDS011;34859;51.608;11.462;2023-09-19T07:34:23;4.65;;;1.70;;
49041;SDS011;34859;51.608;11.462;2023-09-19T07:39:53;4.38;;;1.65;;
49041;SDS011;34859;51.608;11.462;2023-09-19T07:42:35;4.75;;;2.35;;
49041;SDS011;34859;51.608;11.462;2023-09-19T07:45:24;6.90;;;2.47;;
49041;SDS011;34859;51.608;11.462;2023-09-19T07:51:02;9.15;;;1.88;;
49041;SDS011;34859;51.608;11.462;2023-09-19T07:53:49;3.13;;;1.95;;
49041;SDS011;34859;51.608;11.462;2023-09-19T07:56:31;4.18;;;1.80;;
49041;SDS011;34859;51.608;11.462;2023-09-19T07:59:17;8.52;;;1.73;;
49041;SDS011;34859;51.608;11.462;2023-09-19T08:07:28;6.45;;;1.60;;
49041;SDS011;34859;51.608;11.462;2023-09-19T08:10:14;4.10;;;1.77;;
49041;SDS011;34859;51.608;11.462;2023-09-19T08:12:59;1.95;;;1.17;;
49041;SDS011;34859;51.608;11.462;2023-09-19T08:15:45;6.72;;;1.80;;
49041;SDS011;34859;51.608;11.462;2023-09-19T08:18:31;9.88;;;2.10;;
49041;SDS011;34859;51.608;11.462;2023-09-19T08:21:17;3.72;;;2.03;;
49041;SDS011;34859;51.608;11.462;2023-09-19T08:24:02;8.73;;;2.00;;
49041;SDS011;34859;51.608;11.462;2023-09-19T08:26:47;9.20;;;1.90;;
49041;SDS011;34859;51.608;11.462;2023-09-19T08:29:32;5.88;;;1.55;;
49041;SDS011;34859;51.608;11.462;2023-09-19T08:35:07;6.45;;;1.92;;
49041;SDS011;34859;51.608;11.462;2023-09-19T08:37:53;3.45;;;1.90;;
49041;SDS011;34859;51.608;11.462;2023-09-19T08:40:39;4.80;;;2.40;;
49041;SDS011;34859;51.608;11.462;2023-09-19T08:43:26;6.32;;;2.08;;
49041;SDS011;34859;51.608;11.462;2023-09-19T08:51:47;4.35;;;2.05;;
49041;SDS011;34859;51.608;11.462;2023-09-19T08:54:44;3.85;;;1.75;;
49041;SDS011;34859;51.608;11.462;2023-09-19T08:57:33;6.43;;;2.17;;
49041;SDS011;34859;51.608;11.462;2023-09-19T09:00:21;7.35;;;2.78;;
49041;SDS011;34859;51.608;11.462;2023-09-19T09:03:09;11.75;;;1.98;;
49041;SDS011;34859;51.608;11.462;2023-09-19T09:05:55;5.18;;;2.00;;
49041;SDS011;34859;51.608;11.462;2023-09-19T09:08:43;5.68;;;1.80;;
49041;SDS011;34859;51.608;11.462;2023-09-19T09:11:29;3.60;;;1.95;;
49041;SDS011;34859;51.608;11.462;2023-09-19T09:14:18;3.78;;;1.85;;
49041;SDS011;34859;51.608;11.462;2023-09-19T09:17:00;4.93;;;1.85;;
49041;SDS011;34859;51.608;11.462;2023-09-19T09:19:46;5.93;;;2.00;;
49041;SDS011;34859;51.608;11.462;2023-09-19T09:22:31;5.35;;;1.55;;
49041;SDS011;34859;51.608;11.462;2023-09-19T09:25:17;9.32;;;1.85;;
49041;SDS011;34859;51.608;11.462;2023-09-19T09:28:03;7.75;;;1.40;;
49041;SDS011;34859;51.608;11.462;2023-09-19T09:30:49;3.13;;;1.15;;
49041;SDS011;34859;51.608;11.462;2023-09-19T09:33:34;6.15;;;1.90;;
49041;SDS011;34859;51.608;11.462;2023-09-19T09:36:34;5.53;;;1.70;;
49041;SDS011;34859;51.608;11.462;2023-09-19T09:39:14;5.18;;;2.13;;
49041;SDS011;34859;51.608;11.462;2023-09-19T09:42:50;6.93;;;1.48;;
49041;SDS011;34859;51.608;11.462;2023-09-19T09:45:30;4.72;;;1.50;;
49041;SDS011;34859;51.608;11.462;2023-09-19T09:48:18;7.45;;;1.98;;
49041;SDS011;34859;51.608;11.462;2023-09-19T09:51:15;4.72;;;1.65;;
49041;SDS011;34859;51.608;11.462;2023-09-19T09:54:17;2.55;;;1.35;;
49041;SDS011;34859;51.608;11.462;2023-09-19T09:57:16;7.95;;;1.83;;
49041;SDS011;34859;51.608;11.462;2023-09-19T10:00:03;4.68;;;1.70;;
49041;SDS011;34859;51.608;11.462;2023-09-19T10:02:55;7.72;;;2.08;;
49041;SDS011;34859;51.608;11.462;2023-09-19T10:08:30;4.95;;;1.75;;
49041;SDS011;34859;51.608;11.462;2023-09-19T10:11:16;7.07;;;1.50;;
49041;SDS011;34859;51.608;11.462;2023-09-19T10:14:02;6.95;;;2.13;;
49041;SDS011;34859;51.608;11.462;2023-09-19T10:16:47;4.10;;;1.70;;
49041;SDS011;34859;51.608;11.462;2023-09-19T10:19:44;4.90;;;1.85;;
49041;SDS011;34859;51.608;11.462;2023-09-19T10:22:31;8.05;;;2.17;;
49041;SDS011;34859;51.608;11.462;2023-09-19T10:25:22;6.97;;;1.50;;
49041;SDS011;34859;51.608;11.462;2023-09-19T10:28:12;5.78;;;1.77;;
49041;SDS011;34859;51.608;11.462;2023-09-19T10:30:58;8.70;;;1.85;;
49041;SDS011;34859;51.608;11.462;2023-09-19T10:33:44;3.40;;;2.22;;
49041;SDS011;34859;51.608;11.462;2023-09-19T10:36:32;3.17;;;1.90;;
49041;SDS011;34859;51.608;11.462;2023-09-19T10:39:20;8.50;;;1.80;;
49041;SDS011;34859;51.608;11.462;2023-09-19T10:42:07;5.18;;;1.90;;
49041;SDS011;34859;51.608;11.462;2023-09-19T10:44:58;5.32;;;1.50;;
49041;SDS011;34859;51.608;11.462;2023-09-19T10:47:50;6.10;;;2.33;;
49041;SDS011;34859;51.608;11.462;2023-09-19T10:50:53;5.90;;;1.55;;
49041;SDS011;34859;51.608;11.462;2023-09-19T10:54:01;5.68;;;1.92;;
49041;SDS011;34859;51.608;11.462;2023-09-19T10:56:51;4.65;;;1.60;;
49041;SDS011;34859;51.608;11.462;2023-09-19T10:59:36;5.78;;;1.83;;
49041;SDS011;34859;51.608;11.462;2023-09-19T11:05:10;4.18;;;1.80;;
49041;SDS011;34859;51.608;11.462;2023-09-19T11:07:57;5.05;;;1.40;;
49041;SDS011;34859;51.608;11.462;2023-09-19T11:10:47;7.15;;;2.55;;
49041;SDS011;34859;51.608;11.462;2023-09-19T11:13:34;5.28;;;1.83;;
49041;SDS011;34859;51.608;11.462;2023-09-19T11:16:20;9.73;;;1.65;;
49041;SDS011;34859;51.608;11.462;2023-09-19T11:19:07;2.80;;;1.10;;
49041;SDS011;34859;51.608;11.462;2023-09-19T11:21:54;4.25;;;1.70;;
49041;SDS011;34859;51.608;11.462;2023-09-19T11:24:40;4.55;;;1.52;;
49041;SDS011;34859;51.608;11.462;2023-09-19T11:27:25;6.45;;;1.50;;
49041;SDS011;34859;51.608;11.462;2023-09-19T11:30:26;4.65;;;1.55;;
49041;SDS011;34859;51.608;11.462;2023-09-19T11:36:34;3.90;;;1.50;;
49041;SDS011;34859;51.608;11.462;2023-09-19T11:39:26;2.17;;;1.37;;
49041;SDS011;34859;51.608;11.462;2023-09-19T11:48:31;4.45;;;1.70;;
49041;SDS011;34859;51.608;11.462;2023-09-19T11:51:19;4.95;;;1.75;;
49041;SDS011;34859;51.608;11.462;2023-09-19T11:54:10;6.30;;;1.75;;
49041;SDS011;34859;51.608;11.462;2023-09-19T11:57:05;7.13;;;2.05;;
49041;SDS011;34859;51.608;11.462;2023-09-19T11:59:51;5.90;;;1.85;;
49041;SDS011;34859;51.608;11.462;2023-09-19T12:02:39;3.30;;;1.98;;
49041;SDS011;34859;51.608;11.462;2023-09-19T12:05:32;4.28;;;1.70;;
49041;SDS011;34859;51.608;11.462;2023-09-19T12:08:18;2.58;;;1.50;;
49041;SDS011;34859;51.608;11.462;2023-09-19T12:11:05;4.50;;;1.73;;
49041;SDS011;34859;51.608;11.462;2023-09-19T12:13:54;5.60;;;1.58;;
49041;SDS011;34859;51.608;11.462;2023-09-19T12:16:42;5.68;;;1.60;;
49041;SDS011;34859;51.608;11.462;2023-09-19T12:19:49;8.75;;;2.13;;
49041;SDS011;34859;51.608;11.462;2023-09-19T12:22:57;5.05;;;1.90;;
49041;SDS011;34859;51.608;11.462;2023-09-19T12:25:42;8.43;;;1.92;;
49041;SDS011;34859;51.608;11.462;2023-09-19T12:28:26;3.65;;;1.92;;
49041;SDS011;34859;51.608;11.462;2023-09-19T12:31:18;7.93;;;2.00;;
49041;SDS011;34859;51.608;11.462;2023-09-19T12:34:25;7.68;;;1.67;;
49041;SDS011;34859;51.608;11.462;2023-09-19T12:37:09;5.40;;;2.20;;
49041;SDS011;34859;51.608;11.462;2023-09-19T12:40:13;8.35;;;2.00;;
49041;SDS011;34859;51.608;11.462;2023-09-19T12:43:18;3.67;;;1.47;;
49041;SDS011;34859;51.608;11.462;2023-09-19T12:46:03;5.65;;;1.77;;
49041;SDS011;34859;51.608;11.462;2023-09-19T12:48:49;6.30;;;2.08;;
49041;SDS011;34859;51.608;11.462;2023-09-19T12:51:54;5.72;;;2.13;;
49041;SDS011;34859;51.608;11.462;2023-09-19T12:54:42;3.75;;;1.85;;
49041;SDS011;34859;51.608;11.462;2023-09-19T12:57:30;3.30;;;2.10;;
49041;SDS011;34859;51.608;11.462;2023-09-19T13:00:15;4.35;;;2.05;;
49041;SDS011;34859;51.608;11.462;2023-09-19T13:03:25;2.50;;;1.90;;
49041;SDS011;34859;51.608;11.462;2023-09-19T13:06:15;2.78;;;1.75;;
49041;SDS011;34859;51.608;11.462;2023-09-19T13:09:10;6.45;;;3.00;;
49041;SDS011;34859;51.608;11.462;2023-09-19T13:11:55;3.20;;;2.00;;
49041;SDS011;34859;51.608;11.462;2023-09-19T13:14:43;2.65;;;1.80;;
49041;SDS011;34859;51.608;11.462;2023-09-19T13:17:42;2.65;;;2.20;;
49041;SDS011;34859;51.608;11.462;2023-09-19T13:20:32;9.00;;;2.10;;
49041;SDS011;34859;51.608;11.462;2023-09-19T13:23:27;4.50;;;2.15;;
49041;SDS011;34859;51.608;11.462;2023-09-19T13:26:17;3.88;;;2.30;;
49041;SDS011;34859;51.608;11.462;2023-09-19T13:29:03;4.95;;;2.28;;
49041;SDS011;34859;51.608;11.462;2023-09-19T13:31:52;5.10;;;2.10;;
49041;SDS011;34859;51.608;11.462;2023-09-19T13:34:34;5.28;;;1.85;;
49041;SDS011;34859;51.608;11.462;2023-09-19T13:37:21;4.65;;;2.55;;
49041;SDS011;34859;51.608;11.462;2023-09-19T13:42:54;5.10;;;2.00;;
49041;SDS011;34859;51.608;11.462;2023-09-19T13:45:40;5.03;;;2.28;;
49041;SDS011;34859;51.608;11.462;2023-09-19T13:48:28;6.68;;;1.70;;
49041;SDS011;34859;51.608;11.462;2023-09-19T13:51:14;5.50;;;2.13;;
49041;SDS011;34859;51.608;11.462;2023-09-19T13:54:07;4.13;;;2.00;;
49041;SDS011;34859;51.608;11.462;2023-09-19T13:56:57;3.05;;;1.67;;
49041;SDS011;34859;51.608;11.462;2023-09-19T13:59:44;4.05;;;2.30;;
49041;SDS011;34859;51.608;11.462;2023-09-19T14:02:49;6.47;;;2.17;;
49041;SDS011;34859;51.608;11.462;2023-09-19T14:05:34;3.78;;;2.17;;
49041;SDS011;34859;51.608;11.462;2023-09-19T14:08:27;5.40;;;1.77;;
49041;SDS011;34859;51.608;11.462;2023-09-19T14:11:33;2.65;;;1.88;;
49041;SDS011;34859;51.608;11.462;2023-09-19T14:14:20;5.28;;;2.10;;
49041;SDS011;34859;51.608;11.462;2023-09-19T14:17:28;6.45;;;1.60;;
49041;SDS011;34859;51.608;11.462;2023-09-19T14:20:14;6.25;;;2.20;;
49041;SDS011;34859;51.608;11.462;2023-09-19T14:23:21;8.10;;;1.90;;
49041;SDS011;34859;51.608;11.462;2023-09-19T14:26:06;8.45;;;2.47;;
49041;SDS011;34859;51.608;11.462;2023-09-19T14:28:54;7.65;;;2.13;;
49041;SDS011;34859;51.608;11.462;2023-09-19T14:31:41;12.43;;;2.50;;
49041;SDS011;34859;51.608;11.462;2023-09-19T14:34:30;4.82;;;1.98;;
49041;SDS011;34859;51.608;11.462;2023-09-19T14:37:25;6.95;;;1.95;;
49041;SDS011;34859;51.608;11.462;2023-09-19T14:40:19;11.85;;;2.72;;
49041;SDS011;34859;51.608;11.462;2023-09-19T14:43:26;4.25;;;1.73;;
49041;SDS011;34859;51.608;11.462;2023-09-19T14:46:14;3.30;;;1.90;;
49041;SDS011;34859;51.608;11.462;2023-09-19T14:49:09;11.40;;;2.80;;
49041;SDS011;34859;51.608;11.462;2023-09-19T14:52:00;3.10;;;1.73;;
49041;SDS011;34859;51.608;11.462;2023-09-19T14:54:48;7.20;;;2.25;;
49041;SDS011;34859;51.608;11.462;2023-09-19T14:57:38;6.97;;;1.88;;
49041;SDS011;34859;51.608;11.462;2023-09-19T15:00:24;6.43;;;1.92;;
49041;SDS011;34859;51.608;11.462;2023-09-19T15:03:10;5.97;;;1.73;;
49041;SDS011;34859;51.608;11.462;2023-09-19T15:06:30;4.50;;;2.38;;
49041;SDS011;34859;51.608;11.462;2023-09-19T15:09:42;4.82;;;1.80;;
49041;SDS011;34859;51.608;11.462;2023-09-19T15:13:08;8.15;;;2.15;;
49041;SDS011;34859;51.608;11.462;2023-09-19T15:16:33;4.40;;;1.73;;
49041;SDS011;34859;51.608;11.462;2023-09-19T15:19:57;6.28;;;1.90;;
49041;SDS011;34859;51.608;11.462;2023-09-19T15:23:07;4.75;;;1.50;;
49041;SDS011;34859;51.608;11.462;2023-09-19T15:25:55;8.27;;;2.00;;
49041;SDS011;34859;51.608;11.462;2023-09-19T15:28:59;6.30;;;2.78;;
49041;SDS011;34859;51.608;11.462;2023-09-19T15:32:16;10.57;;;1.90;;
49041;SDS011;34859;51.608;11.462;2023-09-19T15:36:04;5.22;;;1.75;;
49041;SDS011;34859;51.608;11.462;2023-09-19T15:39:00;4.78;;;2.00;;
49041;SDS011;34859;51.608;11.462;2023-09-19T15:42:07;3.60;;;1.98;;
49041;SDS011;34859;51.608;11.462;2023-09-19T15:45:33;7.45;;;2.13;;
49041;SDS011;34859;51.608;11.462;2023-09-19T15:49:02;6.28;;;1.65;;
49041;SDS011;34859;51.608;11.462;2023-09-19T15:52:27;5.32;;;2.33;;
49041;SDS011;34859;51.608;11.462;2023-09-19T15:55:50;5.40;;;1.75;;
49041;SDS011;34859;51.608;11.462;2023-09-19T15:59:21;3.33;;;1.60;;
49041;SDS011;34859;51.608;11.462;2023-09-19T16:03:05;2.22;;;1.45;;
49041;SDS011;34859;51.608;11.462;2023-09-19T16:06:36;4.90;;;1.40;;
49041;SDS011;34859;51.608;11.462;2023-09-19T16:09:42;4.15;;;1.90;;
49041;SDS011;34859;51.608;11.462;2023-09-19T16:12:49;2.53;;;1.92;;
49041;SDS011;34859;51.608;11.462;2023-09-19T16:16:15;5.32;;;2.28;;
49041;SDS011;34859;51.608;11.462;2023-09-19T16:19:44;5.68;;;2.10;;
49041;SDS011;34859;51.608;11.462;2023-09-19T16:23:30;4.45;;;1.80;;
49041;SDS011;34859;51.608;11.462;2023-09-19T16:26:56;5.38;;;1.92;;
49041;SDS011;34859;51.608;11.462;2023-09-19T16:30:26;7.10;;;2.30;;
49041;SDS011;34859;51.608;11.462;2023-09-19T16:35:58;4.40;;;1.70;;
49041;SDS011;34859;51.608;11.462;2023-09-19T16:39:22;6.68;;;1.90;;
49041;SDS011;34859;51.608;11.462;2023-09-19T16:42:48;5.90;;;2.10;;
49041;SDS011;34859;51.608;11.462;2023-09-19T16:45:53;5.00;;;1.95;;
49041;SDS011;34859;51.608;11.462;2023-09-19T16:49:07;4.53;;;2.38;;
49041;SDS011;34859;51.608;11.462;2023-09-19T16:52:12;4.60;;;2.13;;
49041;SDS011;34859;51.608;11.462;2023-09-19T16:55:07;3.03;;;1.60;;
49041;SDS011;34859;51.608;11.462;2023-09-19T16:58:14;4.80;;;2.10;;
49041;SDS011;34859;51.608;11.462;2023-09-19T17:00:59;7.25;;;2.00;;
49041;SDS011;34859;51.608;11.462;2023-09-19T17:03:46;4.88;;;2.08;;
49041;SDS011;34859;51.608;11.462;2023-09-19T17:06:35;3.30;;;2.15;;
49041;SDS011;34859;51.608;11.462;2023-09-19T17:09:48;7.85;;;2.55;;
49041;SDS011;34859;51.608;11.462;2023-09-19T17:12:58;11.40;;;2.85;;
49041;SDS011;34859;51.608;11.462;2023-09-19T17:15:47;4.78;;;2.35;;
49041;SDS011;34859;51.608;11.462;2023-09-19T17:18:44;7.25;;;2.25;;
49041;SDS011;34859;51.608;11.462;2023-09-19T17:21:35;4.57;;;2.58;;
49041;SDS011;34859;51.608;11.462;2023-09-19T17:24:22;7.47;;;1.92;;
49041;SDS011;34859;51.608;11.462;2023-09-19T17:27:15;6.43;;;1.92;;
49041;SDS011;34859;51.608;11.462;2023-09-19T17:30:01;5.05;;;2.08;;
49041;SDS011;34859;51.608;11.462;2023-09-19T17:32:58;5.55;;;1.90;;
49041;SDS011;34859;51.608;11.462;2023-09-19T17:36:05;6.03;;;2.42;;
49041;SDS011;34859;51.608;11.462;2023-09-19T17:38:56;9.77;;;2.85;;
49041;SDS011;34859;51.608;11.462;2023-09-19T17:41:45;7.32;;;2.13;;
49041;SDS011;34859;51.608;11.462;2023-09-19T17:44:35;5.13;;;2.20;;
49041;SDS011;34859;51.608;11.462;2023-09-19T17:47:15;6.40;;;2.00;;
49041;SDS011;34859;51.608;11.462;2023-09-19T17:50:12;3.50;;;2.08;;
49041;SDS011;34859;51.608;11.462;2023-09-19T17:52:59;4.57;;;2.20;;
49041;SDS011;34859;51.608;11.462;2023-09-19T17:55:46;8.60;;;2.22;;
49041;SDS011;34859;51.608;11.462;2023-09-19T17:58:34;6.95;;;2.35;;
49041;SDS011;34859;51.608;11.462;2023-09-19T18:01:20;7.70;;;2.88;;
49041;SDS011;34859;51.608;11.462;2023-09-19T18:04:11;4.20;;;2.50;;
49041;SDS011;34859;51.608;11.462;2023-09-19T18:06:58;6.68;;;2.20;;
49041;SDS011;34859;51.608;11.462;2023-09-19T18:09:47;6.90;;;2.78;;
49041;SDS011;34859;51.608;11.462;2023-09-19T18:12:35;4.93;;;1.92;;
49041;SDS011;34859;51.608;11.462;2023-09-19T18:15:18;9.15;;;2.47;;
49041;SDS011;34859;51.608;11.462;2023-09-19T18:18:08;8.65;;;2.65;;
49041;SDS011;34859;51.608;11.462;2023-09-19T18:20:54;4.75;;;2.25;;
49041;SDS011;34859;51.608;11.462;2023-09-19T18:23:43;9.07;;;2.90;;
49041;SDS011;34859;51.608;11.462;2023-09-19T18:26:30;8.82;;;2.75;;
49041;SDS011;34859;51.608;11.462;2023-09-19T18:31:59;6.50;;;2.30;;
49041;SDS011;34859;51.608;11.462;2023-09-19T18:34:40;8.43;;;2.90;;
49041;SDS011;34859;51.608;11.462;2023-09-19T18:37:27;9.85;;;3.58;;
49041;SDS011;34859;51.608;11.462;2023-09-19T18:40:14;5.57;;;2.67;;
49041;SDS011;34859;51.608;11.462;2023-09-19T18:43:00;5.10;;;1.77;;
49041;SDS011;34859;51.608;11.462;2023-09-19T18:45:55;7.63;;;2.47;;
49041;SDS011;34859;51.608;11.462;2023-09-19T18:48:42;5.97;;;2.35;;
49041;SDS011;34859;51.608;11.462;2023-09-19T18:51:30;4.93;;;2.25;;
49041;SDS011;34859;51.608;11.462;2023-09-19T18:54:17;9.40;;;2.53;;
49041;SDS011;34859;51.608;11.462;2023-09-19T18:57:02;8.27;;;2.33;;
49041;SDS011;34859;51.608;11.462;2023-09-19T18:59:43;6.50;;;2.47;;